Time;durP1;ratioP1;P1;durP2;ratioP2;P2;SDS_P1;SDS_P2;PMS_P1;PMS_P2;Temp;Humidity;BMP_temperature;BMP_pressure;BME280_temperature;BME280_humidity;BME280_pressure;Samples;Min_cycle;Max_cycle;Signal;HPM_P1;HPM_P2
2021/11/23 00:01:22;;;;;;;6.85;3.90;;;1.80;99.90;;;;;;5014637;28;20042;-79
2021/11/23 00:03:49;;;;;;;5.68;3.72;;;1.90;99.90;;;;;;5014563;28;20037;-78
2021/11/23 00:06:15;;;;;;;4.82;2.95;;;1.90;99.90;;;;;;5016874;28;20491;-78
2021/11/23 00:08:41;;;;;;;7.55;4.13;;;1.90;99.90;;;;;;5017267;28;20525;-79
2021/11/23 00:11:07;;;;;;;4.10;3.30;;;1.90;99.90;;;;;;5026651;28;20064;-78
2021/11/23 00:13:33;;;;;;;5.43;3.65;;;1.90;99.90;;;;;;5015787;28;20033;-78
2021/11/23 00:15:58;;;;;;;4.35;3.63;;;1.90;99.90;;;;;;5015928;28;20029;-78
2021/11/23 00:18:24;;;;;;;6.00;3.97;;;1.90;99.90;;;;;;5018914;28;20040;-78
2021/11/23 00:20:50;;;;;;;6.85;3.90;;;1.80;99.90;;;;;;5015888;28;20043;-78
2021/11/23 00:23:16;;;;;;;7.20;4.25;;;1.80;99.90;;;;;;5013512;28;20034;-78
2021/11/23 00:25:42;;;;;;;4.18;3.60;;;1.80;99.90;;;;;;5030115;28;20040;-78
2021/11/23 00:28:09;;;;;;;5.03;4.05;;;1.80;99.90;;;;;;5015919;28;20034;-78
2021/11/23 00:30:35;;;;;;;5.22;3.92;;;1.80;99.90;;;;;;5011999;28;20409;-78
2021/11/23 00:33:01;;;;;;;5.72;4.25;;;1.80;99.90;;;;;;5017933;28;20034;-79
2021/11/23 00:35:27;;;;;;;4.45;3.50;;;1.80;99.90;;;;;;5017588;28;20189;-78
2021/11/23 00:37:53;;;;;;;5.07;3.55;;;1.80;99.90;;;;;;5022113;28;20502;-78
2021/11/23 00:40:20;;;;;;;5.57;4.57;;;1.80;99.90;;;;;;5032789;28;20034;-79
2021/11/23 00:42:46;;;;;;;5.28;3.92;;;1.80;99.90;;;;;;5018675;28;20115;-79
2021/11/23 00:45:13;;;;;;;8.80;4.93;;;1.80;99.90;;;;;;5018065;28;20469;-79
2021/11/23 00:47:39;;;;;;;6.60;3.80;;;1.80;99.90;;;;;;5023814;28;20182;-79
2021/11/23 00:50:07;;;;;;;4.45;3.35;;;1.80;99.90;;;;;;5021357;28;20021;-79
2021/11/23 00:52:34;;;;;;;5.03;4.13;;;1.80;99.90;;;;;;5039202;28;20569;-79
2021/11/23 00:54:59;;;;;;;5.40;3.75;;;1.80;99.90;;;;;;5018491;28;20087;-79
2021/11/23 00:57:25;;;;;;;6.82;4.18;;;1.80;99.90;;;;;;5019565;28;20486;-79
2021/11/23 00:59:51;;;;;;;5.47;4.07;;;1.80;99.90;;;;;;5018712;28;20044;-79
2021/11/23 01:02:16;;;;;;;5.80;3.88;;;1.80;99.90;;;;;;5034740;28;20040;-79
2021/11/23 01:04:43;;;;;;;5.97;3.35;;;1.80;99.90;;;;;;5022642;28;20584;-79
2021/11/23 01:07:09;;;;;;;4.53;3.65;;;1.80;99.90;;;;;;5030555;28;20441;-79
2021/11/23 01:09:34;;;;;;;6.90;4.18;;;1.80;99.90;;;;;;5030668;28;20025;-79
2021/11/23 01:12:00;;;;;;;6.05;4.05;;;1.80;99.90;;;;;;5017213;28;20045;-79
2021/11/23 01:14:26;;;;;;;5.72;3.88;;;1.80;99.90;;;;;;5016510;28;20051;-79
2021/11/23 01:16:52;;;;;;;6.47;4.00;;;1.80;99.90;;;;;;5012367;28;20029;-79
2021/11/23 01:19:18;;;;;;;6.20;3.45;;;1.80;99.90;;;;;;5016114;28;20036;-79
2021/11/23 01:21:45;;;;;;;4.00;2.85;;;1.80;99.90;;;;;;5015698;28;20493;-79
2021/11/23 01:24:14;;;;;;;4.10;3.65;;;1.80;99.90;;;;;;5014182;28;21456;-79
2021/11/23 01:26:41;;;;;;;5.25;3.90;;;1.80;99.90;;;;;;5013503;28;20036;-79
2021/11/23 01:29:08;;;;;;;6.18;4.03;;;1.80;99.90;;;;;;5010334;28;20462;-79
2021/11/23 01:31:34;;;;;;;6.97;3.45;;;1.80;99.90;;;;;;5029182;28;21189;-79
2021/11/23 01:34:00;;;;;;;3.55;3.03;;;1.90;99.90;;;;;;5030691;28;20471;-79
2021/11/23 01:36:26;;;;;;;4.75;3.25;;;1.90;99.90;;;;;;5027811;28;20617;-79
2021/11/23 01:38:51;;;;;;;4.38;3.67;;;1.90;99.90;;;;;;5031426;28;20044;-79
2021/11/23 01:41:17;;;;;;;4.72;3.42;;;1.80;99.90;;;;;;5016301;28;20037;-79
2021/11/23 01:43:43;;;;;;;4.35;3.42;;;1.80;99.90;;;;;;5012237;28;20037;-79
2021/11/23 01:46:09;;;;;;;5.40;3.65;;;1.80;99.90;;;;;;5015956;28;20079;-79
2021/11/23 01:48:35;;;;;;;5.00;3.50;;;1.80;99.90;;;;;;5010253;28;20473;-79
2021/11/23 01:51:03;;;;;;;6.63;3.97;;;1.80;99.90;;;;;;5016532;28;20778;-79
2021/11/23 01:53:30;;;;;;;4.40;3.30;;;1.80;99.90;;;;;;5012267;28;20049;-79
2021/11/23 01:55:56;;;;;;;5.18;3.20;;;1.80;99.90;;;;;;5014200;28;20034;-79
2021/11/23 01:58:22;;;;;;;5.50;3.47;;;1.80;99.90;;;;;;5012312;28;20021;-79
2021/11/23 02:00:47;;;;;;;7.55;4.28;;;1.80;99.90;;;;;;5013300;28;20159;-79
2021/11/23 02:03:14;;;;;;;4.95;3.63;;;1.80;99.90;;;;;;5015740;28;20021;-79
2021/11/23 02:05:40;;;;;;;6.35;3.70;;;1.80;99.90;;;;;;5015085;28;20041;-79
2021/11/23 02:08:07;;;;;;;5.07;2.88;;;1.80;99.90;;;;;;5027727;28;20034;-79
2021/11/23 02:10:33;;;;;;;5.97;4.00;;;1.70;99.90;;;;;;5012024;28;20026;-79
2021/11/23 02:13:00;;;;;;;6.03;3.60;;;1.70;99.90;;;;;;5011605;28;20084;-79
2021/11/23 02:15:26;;;;;;;5.57;3.72;;;1.70;99.90;;;;;;5012740;28;20060;-78
2021/11/23 02:17:52;;;;;;;3.85;2.72;;;1.70;99.90;;;;;;5015636;28;20034;-78
2021/11/23 02:20:21;;;;;;;6.03;3.28;;;1.70;99.90;;;;;;5018636;28;20470;-79
2021/11/23 02:22:48;;;;;;;5.18;3.67;;;1.70;99.90;;;;;;5016868;28;20530;-79
2021/11/23 02:25:14;;;;;;;5.40;3.58;;;1.70;99.90;;;;;;5011392;28;20030;-78
2021/11/23 02:27:41;;;;;;;4.60;2.88;;;1.60;99.90;;;;;;5014583;28;20060;-78
2021/11/23 02:30:08;;;;;;;3.75;3.05;;;1.60;99.90;;;;;;5014617;28;20033;-78
2021/11/23 02:32:51;;;;;;;4.88;3.03;;;1.50;99.90;;;;;;5025417;28;20038;-78
2021/11/23 02:35:23;;;;;;;4.35;3.35;;;1.40;99.90;;;;;;5008465;28;20029;-79
2021/11/23 02:37:53;;;;;;;3.90;2.97;;;1.40;99.90;;;;;;5012158;28;20152;-78
2021/11/23 02:40:20;;;;;;;4.72;3.47;;;1.30;99.90;;;;;;5031379;28;20045;-78
2021/11/23 02:42:47;;;;;;;5.13;3.20;;;1.20;99.90;;;;;;5014383;28;20520;-78
2021/11/23 02:45:16;;;;;;;4.40;3.42;;;1.30;99.90;;;;;;5011816;28;20025;-78
2021/11/23 02:47:42;;;;;;;5.13;3.05;;;1.20;99.90;;;;;;5011362;28;20025;-78
2021/11/23 02:50:12;;;;;;;6.38;2.97;;;1.20;99.90;;;;;;5013404;28;20029;-79
2021/11/23 02:52:38;;;;;;;5.80;3.63;;;1.10;99.90;;;;;;5019275;28;20478;-78
2021/11/23 02:55:05;;;;;;;5.45;3.42;;;1.10;99.90;;;;;;5017128;28;20032;-78
2021/11/23 02:57:32;;;;;;;5.65;3.47;;;1.10;99.90;;;;;;5017557;28;20036;-79
2021/11/23 02:59:59;;;;;;;4.63;3.22;;;1.00;99.90;;;;;;5014977;28;20031;-79
2021/11/23 03:02:25;;;;;;;4.43;3.60;;;1.00;99.90;;;;;;5012188;28;20120;-78
2021/11/23 03:04:56;;;;;;;8.05;3.30;;;0.90;99.90;;;;;;5018580;28;20076;-79
2021/11/23 03:07:23;;;;;;;3.80;3.20;;;0.90;99.90;;;;;;5013827;28;20034;-78
2021/11/23 03:09:49;;;;;;;5.13;3.20;;;0.90;99.90;;;;;;5014419;28;20040;-78
2021/11/23 03:12:19;;;;;;;3.78;2.60;;;0.90;99.90;;;;;;5021130;28;20025;-79
2021/11/23 03:14:45;;;;;;;4.15;2.83;;;0.90;99.90;;;;;;5016445;28;20498;-78
2021/11/23 03:17:13;;;;;;;4.15;3.30;;;0.80;99.90;;;;;;5024136;28;20068;-78
2021/11/23 03:19:40;;;;;;;4.60;3.08;;;0.80;99.90;;;;;;5014371;28;20074;-79
2021/11/23 03:22:06;;;;;;;4.80;3.40;;;0.80;99.90;;;;;;5018769;28;20386;-79
2021/11/23 03:24:32;;;;;;;4.10;3.30;;;0.80;99.90;;;;;;5014777;28;20056;-79
2021/11/23 03:26:58;;;;;;;5.90;2.92;;;0.70;99.90;;;;;;5019424;28;20128;-79
2021/11/23 03:29:23;;;;;;;5.75;2.95;;;0.70;99.90;;;;;;5019020;28;20029;-79
2021/11/23 03:31:49;;;;;;;4.35;3.22;;;0.70;99.90;;;;;;5016321;28;20045;-79
2021/11/23 03:34:15;;;;;;;4.78;2.85;;;0.60;99.90;;;;;;5022681;28;20036;-78
2021/11/23 03:36:42;;;;;;;3.88;3.28;;;0.60;99.90;;;;;;5019004;28;20077;-79
2021/11/23 03:39:08;;;;;;;4.05;3.58;;;0.60;99.90;;;;;;5019428;28;20060;-78
2021/11/23 03:41:34;;;;;;;3.90;3.17;;;0.60;99.90;;;;;;5016087;28;20033;-78
2021/11/23 03:44:01;;;;;;;4.13;3.17;;;0.50;99.90;;;;;;5019715;28;20021;-79
2021/11/23 03:46:26;;;;;;;4.63;3.03;;;0.50;99.90;;;;;;5020312;28;20035;-78
2021/11/23 03:48:52;;;;;;;3.30;3.00;;;0.40;99.90;;;;;;5018961;28;20030;-79
2021/11/23 03:51:19;;;;;;;3.28;2.45;;;0.50;99.90;;;;;;5018402;28;20030;-79
2021/11/23 03:53:44;;;;;;;3.17;2.88;;;0.50;99.90;;;;;;5018663;28;20518;-79
2021/11/23 03:56:12;;;;;;;4.65;3.60;;;0.50;99.90;;;;;;5035657;28;20064;-79
2021/11/23 03:58:38;;;;;;;3.00;2.78;;;0.50;99.90;;;;;;5020510;28;20532;-78
2021/11/23 04:01:04;;;;;;;3.83;3.40;;;0.40;99.90;;;;;;5035478;28;20030;-79
2021/11/23 04:03:29;;;;;;;3.50;2.90;;;0.40;99.90;;;;;;5031836;28;20036;-78
2021/11/23 04:05:55;;;;;;;3.90;3.15;;;0.40;99.90;;;;;;5017572;28;20030;-79
2021/11/23 04:08:22;;;;;;;4.05;3.10;;;0.50;99.90;;;;;;5032941;28;20379;-78
2021/11/23 04:10:48;;;;;;;4.03;3.22;;;0.50;99.90;;;;;;5022444;28;20037;-79
2021/11/23 04:13:13;;;;;;;5.15;2.78;;;0.50;99.90;;;;;;5017218;28;20028;-79
2021/11/23 04:15:39;;;;;;;3.55;2.40;;;0.50;99.90;;;;;;5017794;28;20464;-79
2021/11/23 04:18:05;;;;;;;5.30;3.47;;;0.50;99.90;;;;;;5020279;28;20025;-78
2021/11/23 04:20:31;;;;;;;4.32;2.63;;;0.50;99.90;;;;;;5018313;28;20045;-79
2021/11/23 04:22:57;;;;;;;3.10;2.90;;;0.40;99.90;;;;;;5018606;28;20029;-79
2021/11/23 04:25:22;;;;;;;3.42;2.97;;;0.30;99.90;;;;;;5017673;28;20041;-79
2021/11/23 04:27:49;;;;;;;2.92;2.72;;;0.30;99.90;;;;;;5018662;28;20056;-79
2021/11/23 04:30:15;;;;;;;3.22;2.92;;;0.30;99.90;;;;;;5031497;28;20623;-79
2021/11/23 04:32:42;;;;;;;4.32;2.63;;;0.30;99.90;;;;;;5032486;28;20034;-79
2021/11/23 04:35:09;;;;;;;4.97;3.67;;;0.30;99.90;;;;;;5017205;28;20030;-79
2021/11/23 04:37:35;;;;;;;5.13;3.53;;;0.30;99.90;;;;;;5012720;28;20637;-79
2021/11/23 04:40:03;;;;;;;6.80;3.35;;;0.20;99.90;;;;;;5011350;28;20057;-78
2021/11/23 04:42:29;;;;;;;5.38;3.88;;;0.20;99.90;;;;;;5017035;28;20543;-79
2021/11/23 04:44:54;;;;;;;5.35;3.80;;;0.20;99.90;;;;;;5015685;28;20045;-79
2021/11/23 04:47:20;;;;;;;5.00;3.80;;;0.20;99.90;;;;;;5017190;28;20479;-79
2021/11/23 04:49:46;;;;;;;6.53;3.45;;;0.10;99.90;;;;;;5010981;28;20025;-79
2021/11/23 04:52:11;;;;;;;4.93;3.53;;;0.10;99.90;;;;;;5014066;28;20033;-78
2021/11/23 04:54:38;;;;;;;5.70;3.55;;;0.10;99.90;;;;;;5026796;28;20390;-78
2021/11/23 04:57:04;;;;;;;6.03;3.38;;;0.20;99.90;;;;;;5016993;28;20083;-78
2021/11/23 04:59:30;;;;;;;4.68;3.40;;;0.10;99.90;;;;;;5010518;28;20396;-79
2021/11/23 05:01:55;;;;;;;4.65;2.97;;;0.20;99.90;;;;;;5013794;28;20061;-79
2021/11/23 05:04:21;;;;;;;4.78;3.55;;;0.20;99.90;;;;;;5010741;28;20048;-79
2021/11/23 05:06:46;;;;;;;6.07;4.38;;;0.20;99.90;;;;;;5013875;28;20607;-79
2021/11/23 05:09:12;;;;;;;4.45;3.75;;;0.20;99.90;;;;;;5015457;28;20026;-80
2021/11/23 05:11:40;;;;;;;7.03;4.07;;;0.20;99.90;;;;;;5014677;28;20033;-79
2021/11/23 05:14:07;;;;;;;5.13;4.03;;;0.20;99.90;;;;;;5012407;28;20123;-79
2021/11/23 05:16:33;;;;;;;5.50;3.58;;;0.20;99.90;;;;;;5015007;28;20542;-78
2021/11/23 05:18:58;;;;;;;7.43;3.83;;;0.20;99.90;;;;;;5017731;28;20047;-79
2021/11/23 05:21:24;;;;;;;5.53;3.88;;;0.20;99.90;;;;;;5014675;28;20033;-79
2021/11/23 05:23:49;;;;;;;6.03;4.43;;;0.20;99.90;;;;;;5014082;28;20028;-78
2021/11/23 05:26:15;;;;;;;5.32;4.20;;;0.10;99.90;;;;;;5017189;28;20033;-79
2021/11/23 05:28:40;;;;;;;4.60;3.50;;;0.20;99.90;;;;;;5008857;28;20379;-79
2021/11/23 05:31:06;;;;;;;5.88;3.83;;;0.20;99.90;;;;;;5010839;28;20049;-79
2021/11/23 05:33:32;;;;;;;5.05;3.53;;;0.20;99.90;;;;;;5015501;28;20021;-79
2021/11/23 05:35:57;;;;;;;5.18;3.70;;;0.30;99.90;;;;;;5012046;28;20159;-79
2021/11/23 05:38:23;;;;;;;5.25;3.72;;;0.30;99.90;;;;;;5017570;28;20036;-79
2021/11/23 05:40:48;;;;;;;5.78;3.60;;;0.30;99.90;;;;;;5015548;28;20034;-79
2021/11/23 05:43:15;;;;;;;3.90;3.13;;;0.20;99.90;;;;;;5018153;28;20402;-79
2021/11/23 05:45:41;;;;;;;4.45;3.30;;;0.20;99.90;;;;;;5012548;28;20022;-79
2021/11/23 05:48:07;;;;;;;3.78;3.38;;;0.20;99.90;;;;;;5020018;28;20043;-78
2021/11/23 05:50:33;;;;;;;3.53;3.05;;;0.20;99.90;;;;;;5015739;28;20029;-78
2021/11/23 05:52:58;;;;;;;4.97;3.60;;;0.20;99.90;;;;;;5017458;28;20494;-79
2021/11/23 05:55:24;;;;;;;7.10;3.22;;;0.20;99.90;;;;;;5013188;28;20346;-79
2021/11/23 05:57:50;;;;;;;3.15;2.85;;;0.20;99.90;;;;;;5016420;28;20025;-79
2021/11/23 06:00:15;;;;;;;3.33;2.95;;;0.20;99.90;;;;;;5017858;28;20033;-79
2021/11/23 06:02:41;;;;;;;4.43;3.45;;;0.20;99.90;;;;;;5015995;28;20518;-79
2021/11/23 06:05:07;;;;;;;6.88;4.32;;;0.20;99.90;;;;;;5016354;28;20497;-79
2021/11/23 06:07:33;;;;;;;5.53;3.80;;;0.20;99.90;;;;;;5023676;28;20112;-79
2021/11/23 06:09:58;;;;;;;5.00;3.85;;;0.20;99.90;;;;;;5013782;28;20552;-79
2021/11/23 06:12:28;;;;;;;6.38;4.90;;;0.20;99.90;;;;;;5009185;28;20034;-79
2021/11/23 06:14:53;;;;;;;7.78;4.70;;;0.20;99.90;;;;;;5010234;28;20026;-79
2021/11/23 06:17:19;;;;;;;5.60;3.83;;;0.20;99.90;;;;;;5014969;28;20091;-79
2021/11/23 06:19:45;;;;;;;4.18;3.75;;;0.20;99.90;;;;;;5013613;28;20045;-79
2021/11/23 06:22:11;;;;;;;5.20;3.80;;;0.20;99.90;;;;;;5010251;28;20494;-79
2021/11/23 06:24:38;;;;;;;5.15;3.60;;;0.20;99.90;;;;;;5015942;28;20116;-79
2021/11/23 06:27:04;;;;;;;4.57;3.35;;;0.10;99.90;;;;;;5012864;28;20565;-79
2021/11/23 06:29:29;;;;;;;4.25;3.70;;;0.10;99.90;;;;;;5018399;28;20033;-79
2021/11/23 06:31:55;;;;;;;6.10;3.85;;;0.10;99.90;;;;;;5016592;28;20088;-79
2021/11/23 06:34:21;;;;;;;8.15;3.95;;;0.10;99.90;;;;;;5021151;28;20498;-79
2021/11/23 06:36:47;;;;;;;4.75;3.47;;;0.10;99.90;;;;;;5023354;28;20026;-79
2021/11/23 06:39:13;;;;;;;5.07;3.72;;;0.00;99.90;;;;;;5021165;28;20034;-79
2021/11/23 06:41:38;;;;;;;5.93;4.00;;;0.00;99.90;;;;;;5019751;28;20026;-79
2021/11/23 06:44:04;;;;;;;7.93;4.30;;;0.00;99.90;;;;;;5017316;28;20519;-79
2021/11/23 06:46:31;;;;;;;5.63;4.43;;;0.00;99.90;;;;;;5018337;28;20042;-79
2021/11/23 06:48:58;;;;;;;5.65;4.15;;;-0.10;99.90;;;;;;5022064;28;20524;-78
2021/11/23 06:51:24;;;;;;;9.07;4.80;;;-0.20;99.90;;;;;;5017986;28;20081;-78
2021/11/23 06:53:49;;;;;;;5.53;3.75;;;-0.20;99.90;;;;;;5015698;28;20152;-78
2021/11/23 06:56:15;;;;;;;6.57;4.05;;;-0.20;99.90;;;;;;5019746;28;20021;-79
2021/11/23 06:58:41;;;;;;;3.90;3.53;;;-0.20;99.90;;;;;;5034686;28;20125;-79
2021/11/23 07:01:07;;;;;;;5.85;3.97;;;-0.20;99.90;;;;;;5018702;28;20029;-79
2021/11/23 07:03:33;;;;;;;5.70;3.70;;;-0.30;99.90;;;;;;5013775;28;20026;-79
2021/11/23 07:05:58;;;;;;;4.20;3.08;;;-0.30;99.90;;;;;;5014129;28;20498;-79
2021/11/23 07:08:25;;;;;;;7.13;4.10;;;-0.30;99.90;;;;;;5015048;28;20469;-79
2021/11/23 07:10:50;;;;;;;6.68;4.10;;;-0.30;99.90;;;;;;5012231;28;20037;-79
2021/11/23 07:13:16;;;;;;;5.88;4.47;;;-0.30;99.90;;;;;;5019945;28;20024;-79
2021/11/23 07:15:42;;;;;;;4.70;3.75;;;-0.40;99.90;;;;;;5032614;28;20033;-78
2021/11/23 07:18:07;;;;;;;7.43;3.85;;;-0.40;99.90;;;;;;5017342;28;20033;-78
2021/11/23 07:20:33;;;;;;;5.93;4.38;;;-0.40;99.90;;;;;;5018085;28;20033;-78
2021/11/23 07:22:59;;;;;;;8.85;4.70;;;-0.40;99.90;;;;;;5019128;28;20111;-78
2021/11/23 07:25:25;;;;;;;4.10;3.22;;;-0.40;99.90;;;;;;5015054;28;20025;-78
2021/11/23 07:27:50;;;;;;;6.47;4.57;;;-0.40;99.90;;;;;;5019461;28;20033;-79
2021/11/23 07:30:17;;;;;;;9.35;5.57;;;-0.30;99.90;;;;;;5022725;28;20026;-79
2021/11/23 07:32:42;;;;;;;8.60;4.68;;;-0.30;99.90;;;;;;5018170;28;20132;-79
2021/11/23 07:35:09;;;;;;;4.90;4.10;;;-0.30;99.90;;;;;;5029534;28;20068;-79
2021/11/23 07:37:41;;;;;;;8.13;4.50;;;-0.30;99.90;;;;;;5015649;28;20025;-79
2021/11/23 07:40:09;;;;;;;5.85;4.47;;;-0.20;99.90;;;;;;5017296;28;20144;-78
2021/11/23 07:42:35;;;;;;;;;;;-0.20;99.90;;;;;;5017553;28;20414;-79
2021/11/23 07:45:01;;;;;;;5.15;4.30;;;-0.10;99.90;;;;;;5016671;28;19924;-78
2021/11/23 07:47:26;;;;;;;5.93;4.10;;;-0.10;99.90;;;;;;5014899;28;20029;-78
2021/11/23 07:49:52;;;;;;;6.35;4.10;;;-0.10;99.90;;;;;;5016287;28;20068;-78
2021/11/23 07:52:18;;;;;;;7.25;5.15;;;-0.10;99.90;;;;;;5014530;28;20750;-78
2021/11/23 07:54:43;;;;;;;5.57;3.97;;;0.00;99.90;;;;;;5010657;28;20029;-78
2021/11/23 07:57:09;;;;;;;6.43;4.00;;;0.00;99.90;;;;;;5030546;28;20033;-78
2021/11/23 07:59:35;;;;;;;5.60;4.63;;;0.10;99.90;;;;;;5018543;28;20675;-79
2021/11/23 08:02:01;;;;;;;5.45;4.50;;;0.10;99.90;;;;;;5015763;28;20406;-78
2021/11/23 08:04:26;;;;;;;5.65;4.10;;;0.10;99.90;;;;;;5011499;28;20052;-78
2021/11/23 08:06:52;;;;;;;7.80;4.03;;;0.10;99.90;;;;;;5018081;28;20037;-78
2021/11/23 08:09:18;;;;;;;7.15;4.53;;;0.10;99.90;;;;;;5013393;28;20092;-78
2021/11/23 08:11:44;;;;;;;6.78;4.57;;;0.10;99.90;;;;;;5014515;28;20430;-78
2021/11/23 08:14:09;;;;;;;7.35;4.30;;;0.20;99.90;;;;;;5018365;28;20032;-78
2021/11/23 08:16:35;;;;;;;7.30;4.85;;;0.20;99.90;;;;;;5029947;28;20095;-78
2021/11/23 08:19:01;;;;;;;7.50;5.18;;;0.20;99.90;;;;;;5016166;28;21933;-79
2021/11/23 08:21:29;;;;;;;6.15;4.05;;;0.20;99.90;;;;;;5013779;28;20026;-78
2021/11/23 08:23:55;;;;;;;6.00;4.80;;;0.20;99.90;;;;;;5015184;28;20211;-78
2021/11/23 08:26:23;;;;;;;8.20;5.65;;;0.20;99.90;;;;;;5023579;28;20040;-78
2021/11/23 08:28:49;;;;;;;6.65;5.00;;;0.30;99.90;;;;;;5015348;28;20116;-78
2021/11/23 08:31:15;;;;;;;6.45;5.00;;;0.30;99.90;;;;;;5012407;28;20041;-78
2021/11/23 08:33:41;;;;;;;9.07;5.80;;;0.30;99.90;;;;;;5016940;28;20026;-78
2021/11/23 08:36:07;;;;;;;8.13;5.40;;;0.30;99.90;;;;;;5012115;28;20083;-78
2021/11/23 08:38:34;;;;;;;6.82;4.95;;;0.30;99.90;;;;;;5011514;28;20507;-78
2021/11/23 08:41:00;;;;;;;8.32;5.10;;;0.30;99.90;;;;;;5016859;28;20029;-78
2021/11/23 08:43:25;;;;;;;7.25;4.93;;;0.40;99.90;;;;;;5016017;28;20139;-78
2021/11/23 08:45:51;;;;;;;6.60;5.00;;;0.40;99.90;;;;;;5016363;28;20021;-79
2021/11/23 08:48:17;;;;;;;8.02;5.40;;;0.40;99.90;;;;;;5012230;28;20199;-78
2021/11/23 08:50:43;;;;;;;10.10;5.00;;;0.40;99.90;;;;;;5019255;28;20119;-78
2021/11/23 08:53:09;;;;;;;11.10;5.25;;;0.50;99.90;;;;;;5014903;28;20116;-78
2021/11/23 08:55:36;;;;;;;7.63;4.82;;;0.50;99.90;;;;;;5018857;28;20478;-78
2021/11/23 08:58:03;;;;;;;8.05;5.00;;;0.50;99.90;;;;;;5030959;28;20493;-78
2021/11/23 09:00:29;;;;;;;5.30;4.20;;;0.50;99.90;;;;;;5017055;28;20045;-78
2021/11/23 09:02:59;;;;;;;7.75;5.10;;;0.60;99.90;;;;;;5015679;28;20030;-79
2021/11/23 09:05:26;;;;;;;6.85;5.05;;;0.60;99.90;;;;;;5022454;28;20045;-78
2021/11/23 09:07:52;;;;;;;10.23;5.88;;;0.60;99.90;;;;;;5018153;28;20124;-78
2021/11/23 09:10:22;;;;;;;10.32;6.80;;;0.60;99.90;;;;;;5017380;28;20068;-78
2021/11/23 09:12:51;;;;;;;8.80;5.85;;;0.70;99.90;;;;;;5016678;28;20056;-78
2021/11/23 09:15:17;;;;;;;11.32;6.80;;;0.70;99.90;;;;;;5017137;28;20029;-78
2021/11/23 09:17:43;;;;;;;8.93;6.70;;;0.70;99.90;;;;;;5015296;28;20135;-78
2021/11/23 09:20:11;;;;;;;13.57;5.90;;;0.80;99.90;;;;;;5031647;28;20039;-78
2021/11/23 09:22:37;;;;;;;10.70;5.70;;;0.80;99.90;;;;;;5013294;28;20033;-79
2021/11/23 09:25:04;;;;;;;8.32;5.50;;;0.90;99.90;;;;;;5015283;28;20026;-78
2021/11/23 09:27:30;;;;;;;8.75;5.85;;;0.90;99.90;;;;;;5034438;28;20036;-78
2021/11/23 09:29:56;;;;;;;9.93;5.05;;;1.00;99.90;;;;;;5016080;28;20034;-78
2021/11/23 09:32:22;;;;;;;8.82;5.35;;;1.00;99.90;;;;;;5013087;28;20056;-78
2021/11/23 09:34:48;;;;;;;8.65;5.30;;;1.00;99.90;;;;;;5018769;28;20029;-77
2021/11/23 09:37:14;;;;;;;6.60;4.00;;;0.90;99.90;;;;;;5021736;28;20033;-78
2021/11/23 09:39:39;;;;;;;7.72;4.93;;;0.90;99.90;;;;;;5021362;28;20035;-78
2021/11/23 09:42:07;;;;;;;8.13;5.35;;;1.00;99.90;;;;;;5022884;28;20033;-78
2021/11/23 09:44:33;;;;;;;7.25;5.65;;;1.10;99.90;;;;;;5018934;28;20021;-78
2021/11/23 09:46:59;;;;;;;9.45;5.75;;;1.20;99.90;;;;;;5020771;28;21366;-78
2021/11/23 09:49:25;;;;;;;9.05;6.30;;;1.20;99.90;;;;;;5021043;28;20018;-78
2021/11/23 09:51:51;;;;;;;9.82;6.25;;;1.30;99.90;;;;;;5023791;22;20037;-68
2021/11/23 09:54:17;;;;;;;7.28;5.28;;;1.30;99.90;;;;;;5017080;28;20818;-67
2021/11/23 09:56:48;;;;;;;9.00;6.00;;;1.40;99.90;;;;;;5018867;28;20487;-67
2021/11/23 09:59:14;;;;;;;7.10;5.72;;;1.40;99.90;;;;;;5015742;28;20428;-68
2021/11/23 10:01:58;;;;;;;11.60;6.07;;;1.50;99.90;;;;;;5016600;28;20550;-68
2021/11/23 10:04:26;;;;;;;10.02;5.40;;;1.50;99.90;;;;;;5020001;28;20120;-68
2021/11/23 10:06:54;;;;;;;11.23;5.43;;;1.60;99.90;;;;;;5017515;28;20076;-68
2021/11/23 10:09:32;;;;;;;8.48;5.85;;;1.60;99.90;;;;;;5018502;28;20053;-68
2021/11/23 10:12:14;;;;;;;10.82;6.38;;;1.70;99.90;;;;;;5017787;28;20410;-69
2021/11/23 10:15:00;;;;;;;10.13;5.20;;;1.70;99.90;;;;;;5018010;28;20022;-68
2021/11/23 10:17:26;;;;;;;9.65;6.70;;;1.70;99.90;;;;;;5015537;28;20359;-69
2021/11/23 10:19:51;;;;;;;10.98;6.00;;;1.80;99.90;;;;;;5018423;28;20037;-69
2021/11/23 10:22:49;;;;;;;14.68;6.00;;;1.90;99.90;;;;;;5020141;28;20033;-68
2021/11/23 10:25:15;;;;;;;10.73;6.47;;;1.90;99.90;;;;;;4998268;28;20042;-69
2021/11/23 10:27:43;;;;;;;11.88;7.00;;;2.00;99.90;;;;;;5013126;28;20033;-68
2021/11/23 10:30:09;;;;;;;11.57;7.73;;;2.10;99.90;;;;;;5017239;28;20307;-69
2021/11/23 10:32:41;;;;;;;9.68;5.88;;;2.20;99.90;;;;;;5019133;28;20319;-69
2021/11/23 10:35:25;;;;;;;11.13;5.43;;;2.20;99.90;;;;;;5017025;28;20029;-69
2021/11/23 10:37:52;;;;;;;13.05;6.43;;;2.20;99.90;;;;;;5014142;28;20049;-69
2021/11/23 10:40:22;;;;;;;12.50;7.63;;;2.30;99.90;;;;;;5017679;28;20036;-70
2021/11/23 10:42:53;;;;;;;11.05;6.95;;;2.50;99.90;;;;;;5018593;28;20556;-69
2021/11/23 10:45:20;;;;;;;9.23;5.95;;;2.50;99.90;;;;;;5015766;28;20108;-70
2021/11/23 10:47:47;;;;;;;11.30;6.53;;;2.50;99.90;;;;;;5016726;28;20029;-69
2021/11/23 10:50:15;;;;;;;10.48;6.10;;;2.60;99.90;;;;;;5000804;28;20053;-69
2021/11/23 10:52:44;;;;;;;;;;;2.70;99.90;;;;;;4996431;28;20080;-69
2021/11/23 10:55:28;;;;;;;10.10;6.90;;;2.80;99.90;;;;;;4998006;28;19914;-70
2021/11/23 10:57:56;;;;;;;10.60;6.47;;;2.80;99.90;;;;;;4997336;28;20036;-69
2021/11/23 11:00:24;;;;;;;7.47;6.00;;;3.00;99.90;;;;;;4993555;28;20036;-69
2021/11/23 11:02:53;;;;;;;11.47;6.23;;;3.00;99.90;;;;;;4995297;28;20044;-70
2021/11/23 11:05:20;;;;;;;9.82;6.78;;;3.00;99.90;;;;;;4998379;28;20312;-69
2021/11/23 11:07:47;;;;;;;8.52;6.10;;;3.00;99.90;;;;;;4996943;28;20133;-69
2021/11/23 11:10:13;;;;;;;11.20;6.75;;;3.10;99.90;;;;;;4998968;28;20030;-70
2021/11/23 11:12:40;;;;;;;11.48;6.28;;;3.10;99.90;;;;;;5000721;28;20030;-70
2021/11/23 11:15:11;;;;;;;9.20;6.00;;;3.10;99.90;;;;;;5000198;28;20022;-69
2021/11/23 11:17:38;;;;;;;9.15;6.35;;;3.10;99.90;;;;;;5002328;28;21927;-69
2021/11/23 11:20:06;;;;;;;9.25;5.32;;;3.00;99.90;;;;;;5001604;28;20045;-69
2021/11/23 11:22:32;;;;;;;9.48;6.00;;;3.00;99.90;;;;;;5000989;28;20034;-70
2021/11/23 11:27:38;;;;;;;7.82;6.05;;;3.30;99.90;;;;;;5003596;28;20034;-68
2021/11/23 11:30:35;;;;;;;10.82;6.18;;;3.50;99.90;;;;;;5002255;28;20656;-68
2021/11/23 11:33:04;;;;;;;11.20;5.72;;;3.60;99.90;;;;;;5000892;28;20500;-69
2021/11/23 11:35:36;;;;;;;;;;;3.60;99.90;;;;;;4999811;28;20487;-69
2021/11/23 11:38:06;;;;;;;7.53;5.63;;;3.60;99.90;;;;;;4998553;28;19936;-69
2021/11/23 11:40:34;;;;;;;9.93;6.28;;;3.70;99.90;;;;;;4999191;28;20034;-69
2021/11/23 11:43:11;;;;;;;8.05;6.07;;;3.60;99.90;;;;;;5001152;28;20120;-68
2021/11/23 11:45:40;;;;;;;8.52;5.95;;;3.50;99.90;;;;;;4999959;28;20026;-68
2021/11/23 11:48:31;;;;;;;9.75;5.85;;;3.40;99.90;;;;;;5001555;28;20045;-68
2021/11/23 11:51:30;;;;;;;12.02;7.13;;;3.40;99.90;;;;;;4994355;28;20029;-68
2021/11/23 11:53:58;;;;;;;11.02;6.43;;;3.40;99.90;;;;;;4984745;28;20133;-68
2021/11/23 11:56:39;;;;;;;12.85;6.50;;;3.50;99.90;;;;;;4998354;28;20104;-69
2021/11/23 11:59:32;;;;;;;13.10;6.63;;;3.50;99.90;;;;;;4997074;28;20026;-67
2021/11/23 12:02:03;;;;;;;11.05;7.35;;;3.60;99.90;;;;;;5001004;28;20084;-68
2021/11/23 12:04:33;;;;;;;14.45;7.78;;;3.60;99.90;;;;;;5001872;28;21772;-67
2021/11/23 12:07:07;;;;;;;11.45;7.53;;;3.60;99.90;;;;;;5001085;28;20108;-67
2021/11/23 12:09:42;;;;;;;10.98;6.70;;;3.70;99.90;;;;;;4997572;28;20057;-68
2021/11/23 12:12:10;;;;;;;10.73;6.28;;;3.70;99.90;;;;;;5006182;28;20037;-68
2021/11/23 12:14:51;;;;;;;9.90;6.80;;;3.70;99.90;;;;;;5000841;28;20143;-68
2021/11/23 12:17:56;;;;;;;14.15;7.90;;;3.70;99.90;;;;;;5001570;28;20022;-69
2021/11/23 12:20:32;;;;;;;12.40;7.50;;;3.80;99.90;;;;;;4987414;28;20042;-68
2021/11/23 12:23:20;;;;;;;11.70;7.03;;;3.80;99.90;;;;;;5002152;28;20030;-68
2021/11/23 12:25:57;;;;;;;11.90;7.47;;;3.80;99.90;;;;;;4999383;28;20022;-68
2021/11/23 12:28:25;;;;;;;12.67;6.40;;;3.70;99.90;;;;;;5001057;28;20040;-68
2021/11/23 12:30:52;;;;;;;11.18;6.90;;;3.70;99.90;;;;;;4993614;28;20050;-68
2021/11/23 12:33:18;;;;;;;9.48;6.72;;;3.70;99.90;;;;;;4995915;28;20038;-68
2021/11/23 12:35:44;;;;;;;10.35;7.43;;;3.70;99.90;;;;;;4997734;28;20114;-68
2021/11/23 12:38:32;;;;;;;11.80;7.82;;;3.70;99.90;;;;;;4995251;28;20438;-68
2021/11/23 12:41:09;;;;;;;;;;;3.70;99.90;;;;;;4998626;28;20029;-68
2021/11/23 12:43:37;;;;;;;9.80;6.47;;;3.60;99.90;;;;;;4999152;28;20333;-68
2021/11/23 12:46:09;;;;;;;9.50;6.43;;;3.60;99.90;;;;;;5001132;28;20030;-68
2021/11/23 12:48:36;;;;;;;11.75;6.65;;;3.60;99.90;;;;;;4994831;28;20033;-69
2021/11/23 12:51:15;;;;;;;11.68;6.95;;;3.70;99.90;;;;;;4997755;28;20056;-68
2021/11/23 12:54:00;;;;;;;13.05;8.20;;;3.80;99.90;;;;;;5013688;28;20049;-68
2021/11/23 12:56:51;;;;;;;11.18;7.32;;;3.90;99.90;;;;;;5016431;28;20033;-69
2021/11/23 12:59:40;;;;;;;9.90;6.97;;;3.90;99.90;;;;;;5000726;28;20489;-69
2021/11/23 13:02:32;;;;;;;9.95;7.85;;;3.90;99.90;;;;;;5016333;28;20044;-69